GEC8005 GOOY-EDDF
Flight info
| Callsign | GEC8005 |
|---|---|
| Flight time | N/A |
| Altitude | 36000 |
| Route | ANITI UR975 ADM UG850 BERUM N860 VLC L34 CASIM N608 MATEX Z475 OSLAP DCT GEANT DCT NAKIS DCT ROMAM Z16 LTP N871 GIPNO DCT BELUS DCT OMASI N871 KORED DCT LADOL T163 EMPAX EMPAX5B |
| Aircraft | MD11/H-SDE1E2E3FGHIJ2J3J4J5M1RWXY/LB1D1 |
Departure
| Time | 2026-05-04 13:10 |
|---|---|
| Airport | Léopold Sédar Senghor International Airport (GOOY) |
Arrival
| Time | N/A |
|---|---|
| Airport | Frankfurt Main Airport (EDDF) |
| Time | Latitude | Longitude | Altitude | Speed | Heading |
|---|---|---|---|---|---|
| 2026-05-04 11:31 | 14.74268 | -17.48809 | 91 ft | 0 kts | 196° |
| 2026-05-04 12:56 | 14.74269 | -17.48809 | 91 ft | 2 kts | 196° |
| 2026-05-04 12:56 | 14.74289 | -17.48803 | 94 ft | 4 kts | 187° |
| 2026-05-04 12:57 | 14.74313 | -17.48803 | 92 ft | 4 kts | 155° |
| 2026-05-04 12:57 | 14.74332 | -17.48816 | 92 ft | 4 kts | 122° |
| 2026-05-04 12:57 | 14.74342 | -17.48838 | 92 ft | 1 kts | 106° |
| 2026-05-04 12:57 | 14.74344 | -17.48843 | 92 ft | 0 kts | 106° |
| 2026-05-04 13:00 | 14.74344 | -17.48842 | 91 ft | 0 kts | 106° |
| 2026-05-04 13:00 | 14.74340 | -17.48829 | 95 ft | 4 kts | 107° |
| 2026-05-04 13:00 | 14.74321 | -17.48771 | 95 ft | 11 kts | 110° |
| 2026-05-04 13:01 | 14.74295 | -17.48706 | 93 ft | 9 kts | 114° |
| 2026-05-04 13:01 | 14.74281 | -17.48655 | 95 ft | 6 kts | 99° |
| 2026-05-04 13:01 | 14.74277 | -17.48619 | 94 ft | 4 kts | 96° |
| 2026-05-04 13:01 | 14.74274 | -17.48590 | 94 ft | 6 kts | 94° |
| 2026-05-04 13:02 | 14.74272 | -17.48535 | 94 ft | 10 kts | 90° |
| 2026-05-04 13:02 | 14.74282 | -17.48453 | 94 ft | 13 kts | 78° |
| 2026-05-04 13:02 | 14.74302 | -17.48351 | 92 ft | 14 kts | 77° |
| 2026-05-04 13:02 | 14.74321 | -17.48259 | 94 ft | 12 kts | 79° |
| 2026-05-04 13:03 | 14.74332 | -17.48183 | 93 ft | 9 kts | 85° |
| 2026-05-04 13:03 | 14.74325 | -17.48124 | 96 ft | 7 kts | 102° |
| 2026-05-04 13:03 | 14.74310 | -17.48078 | 95 ft | 8 kts | 111° |
| 2026-05-04 13:03 | 14.74283 | -17.48013 | 93 ft | 12 kts | 115° |
| 2026-05-04 13:04 | 14.74226 | -17.47933 | 96 ft | 16 kts | 146° |
| 2026-05-04 13:04 | 14.74108 | -17.47895 | 94 ft | 20 kts | 170° |
| 2026-05-04 13:04 | 14.73961 | -17.47873 | 96 ft | 23 kts | 170° |
| 2026-05-04 13:04 | 14.73796 | -17.47848 | 93 ft | 26 kts | 174° |
| 2026-05-04 13:05 | 14.73607 | -17.47829 | 93 ft | 28 kts | 173° |
| 2026-05-04 13:05 | 14.73425 | -17.47807 | 97 ft | 24 kts | 173° |
| 2026-05-04 13:05 | 14.73267 | -17.47787 | 98 ft | 22 kts | 173° |
| 2026-05-04 13:05 | 14.73126 | -17.47769 | 98 ft | 19 kts | 173° |
| 2026-05-04 13:06 | 14.73007 | -17.47754 | 96 ft | 16 kts | 173° |
| 2026-05-04 13:06 | 14.72906 | -17.47740 | 99 ft | 13 kts | 173° |
| 2026-05-04 13:06 | 14.72822 | -17.47729 | 96 ft | 11 kts | 173° |
| 2026-05-04 13:06 | 14.72753 | -17.47720 | 97 ft | 9 kts | 173° |
| 2026-05-04 13:07 | 14.72701 | -17.47714 | 99 ft | 6 kts | 173° |
| 2026-05-04 13:07 | 14.72666 | -17.47702 | 98 ft | 5 kts | 146° |
| 2026-05-04 13:07 | 14.72655 | -17.47669 | 100 ft | 4 kts | 88° |
| 2026-05-04 13:07 | 14.72658 | -17.47662 | 100 ft | 1 kts | 74° |
| 2026-05-04 13:08 | 14.72663 | -17.47649 | 98 ft | 1 kts | 65° |
| 2026-05-04 13:08 | 14.72672 | -17.47647 | 101 ft | 2 kts | 15° |
| 2026-05-04 13:08 | 14.72685 | -17.47657 | 98 ft | 4 kts | 321° |
| 2026-05-04 13:08 | 14.72713 | -17.47688 | 98 ft | 8 kts | 319° |
| 2026-05-04 13:09 | 14.72838 | -17.47724 | 98 ft | 51 kts | 351° |
| 2026-05-04 13:09 | 14.72887 | -17.47732 | 96 ft | 63 kts | 351° |
| 2026-05-04 13:10 | 14.73281 | -17.47782 | 98 ft | 123 kts | 353° |
| 2026-05-04 13:10 | 14.74411 | -17.47942 | 206 ft | 193 kts | 352° |
| 2026-05-04 13:10 | 14.75823 | -17.48159 | 910 ft | 215 kts | 356° |
| 2026-05-04 13:11 | 14.77362 | -17.47974 | 1736 ft | 230 kts | 14° |
| 2026-05-04 13:11 | 14.78791 | -17.47494 | 2933 ft | 203 kts | 20° |
| 2026-05-04 13:11 | 14.80028 | -17.46715 | 3571 ft | 225 kts | 46° |
| 2026-05-04 13:11 | 14.81046 | -17.45344 | 3769 ft | 256 kts | 55° |
| 2026-05-04 13:12 | 14.82155 | -17.43803 | 4146 ft | 271 kts | 51° |
| 2026-05-04 13:12 | 14.83393 | -17.42330 | 4877 ft | 272 kts | 47° |
| 2026-05-04 13:12 | 14.84726 | -17.40936 | 5575 ft | 273 kts | 44° |
| 2026-05-04 13:12 | 14.86128 | -17.39602 | 6186 ft | 275 kts | 43° |
| 2026-05-04 13:13 | 14.87588 | -17.38301 | 6766 ft | 278 kts | 41° |
| 2026-05-04 13:13 | 14.89085 | -17.37026 | 7342 ft | 280 kts | 41° |
| 2026-05-04 13:13 | 14.90610 | -17.35765 | 7893 ft | 281 kts | 40° |
| 2026-05-04 13:13 | 14.92155 | -17.34513 | 8440 ft | 283 kts | 40° |
| 2026-05-04 13:14 | 14.93716 | -17.33264 | 8981 ft | 284 kts | 40° |
| 2026-05-04 13:14 | 14.95291 | -17.32015 | 9504 ft | 286 kts | 40° |
| 2026-05-04 13:14 | 14.96876 | -17.30765 | 9997 ft | 288 kts | 40° |
| 2026-05-04 13:14 | 14.98477 | -17.29505 | 10148 ft | 313 kts | 39° |
| 2026-05-04 13:15 | 15.00296 | -17.28075 | 10278 ft | 344 kts | 39° |
| 2026-05-04 13:15 | 15.02269 | -17.26534 | 10682 ft | 361 kts | 39° |
| 2026-05-04 13:15 | 15.04293 | -17.24963 | 11476 ft | 366 kts | 39° |
| 2026-05-04 13:15 | 15.06346 | -17.23369 | 12280 ft | 371 kts | 39° |
| 2026-05-04 13:16 | 15.08425 | -17.21753 | 13051 ft | 376 kts | 39° |
| 2026-05-04 13:16 | 15.10524 | -17.20118 | 13806 ft | 380 kts | 39° |
| 2026-05-04 13:16 | 15.12622 | -17.18480 | 14448 ft | 385 kts | 38° |
| 2026-05-04 13:16 | 15.14803 | -17.16776 | 15099 ft | 390 kts | 38° |
| 2026-05-04 13:17 | 15.16976 | -17.15076 | 15720 ft | 394 kts | 38° |
| 2026-05-04 13:17 | 15.19146 | -17.13378 | 16321 ft | 398 kts | 38° |
| 2026-05-04 13:17 | 15.21370 | -17.11637 | 16923 ft | 403 kts | 37° |
| 2026-05-04 13:17 | 15.23616 | -17.09878 | 17514 ft | 407 kts | 37° |
| 2026-05-04 13:18 | 15.25888 | -17.08099 | 18094 ft | 411 kts | 37° |
| 2026-05-04 13:18 | 15.28183 | -17.06301 | 18584 ft | 416 kts | 37° |
| 2026-05-04 13:18 | 15.30501 | -17.04484 | 19039 ft | 420 kts | 37° |
| 2026-05-04 13:18 | 15.32856 | -17.02639 | 19426 ft | 427 kts | 36° |
| 2026-05-04 13:19 | 15.35229 | -17.00777 | 19945 ft | 429 kts | 36° |
| 2026-05-04 13:19 | 15.37620 | -16.98902 | 20397 ft | 433 kts | 36° |
| 2026-05-04 13:19 | 15.40031 | -16.97010 | 20852 ft | 437 kts | 36° |
| 2026-05-04 13:19 | 15.42462 | -16.95101 | 21302 ft | 441 kts | 36° |
| 2026-05-04 13:20 | 15.44916 | -16.93170 | 21757 ft | 445 kts | 36° |
| 2026-05-04 13:20 | 15.47393 | -16.91220 | 22212 ft | 449 kts | 36° |
| 2026-05-04 13:20 | 15.49890 | -16.89256 | 22704 ft | 453 kts | 36° |
| 2026-05-04 13:20 | 15.52412 | -16.87272 | 23164 ft | 457 kts | 35° |
| 2026-05-04 13:21 | 15.54960 | -16.85268 | 23612 ft | 462 kts | 35° |
| 2026-05-04 13:21 | 15.57529 | -16.83247 | 24022 ft | 466 kts | 35° |
| 2026-05-04 13:21 | 15.60119 | -16.81210 | 24441 ft | 469 kts | 35° |
| 2026-05-04 13:21 | 15.62736 | -16.79151 | 24854 ft | 473 kts | 35° |
| 2026-05-04 13:22 | 15.65370 | -16.77077 | 25283 ft | 477 kts | 35° |
| 2026-05-04 13:22 | 15.68026 | -16.74985 | 25698 ft | 481 kts | 35° |
| 2026-05-04 13:22 | 15.70703 | -16.72877 | 26135 ft | 485 kts | 35° |
| 2026-05-04 13:22 | 15.73406 | -16.70747 | 26543 ft | 490 kts | 35° |
| 2026-05-04 13:23 | 15.76127 | -16.68602 | 26934 ft | 493 kts | 35° |
| 2026-05-04 13:23 | 15.78877 | -16.66433 | 27346 ft | 497 kts | 35° |
| 2026-05-04 13:23 | 15.81641 | -16.64252 | 27749 ft | 501 kts | 35° |
| 2026-05-04 13:23 | 15.84425 | -16.62056 | 28139 ft | 505 kts | 35° |
| 2026-05-04 13:24 | 15.87236 | -16.59836 | 28539 ft | 509 kts | 35° |
| 2026-05-04 13:24 | 15.90064 | -16.57603 | 28924 ft | 513 kts | 35° |
| 2026-05-04 13:24 | 15.92913 | -16.55351 | 29305 ft | 517 kts | 35° |
| 2026-05-04 13:25 | 15.98674 | -16.50798 | 30023 ft | 524 kts | 35° |
| 2026-05-04 13:25 | 16.01582 | -16.48498 | 30320 ft | 527 kts | 35° |
| 2026-05-04 13:25 | 16.04512 | -16.46191 | 30614 ft | 529 kts | 34° |
| 2026-05-04 13:25 | 16.07487 | -16.43917 | 30942 ft | 531 kts | 33° |
| 2026-05-04 13:26 | 16.10486 | -16.41678 | 31290 ft | 531 kts | 32° |
| 2026-05-04 13:26 | 16.13479 | -16.39468 | 31665 ft | 530 kts | 32° |
| 2026-05-04 13:26 | 16.16486 | -16.37255 | 32025 ft | 530 kts | 32° |
| 2026-05-04 13:26 | 16.19497 | -16.35037 | 32367 ft | 530 kts | 32° |
| 2026-05-04 13:27 | 16.22495 | -16.32822 | 32742 ft | 528 kts | 32° |
| 2026-05-04 13:27 | 16.25487 | -16.30607 | 33096 ft | 528 kts | 32° |
| 2026-05-04 13:27 | 16.28479 | -16.28389 | 33415 ft | 527 kts | 31° |
| 2026-05-04 13:27 | 16.31468 | -16.26171 | 33749 ft | 527 kts | 31° |
| 2026-05-04 13:28 | 16.34413 | -16.23984 | 34028 ft | 527 kts | 31° |
| 2026-05-04 13:28 | 16.37436 | -16.21739 | 34285 ft | 527 kts | 31° |
| 2026-05-04 13:28 | 16.40418 | -16.19523 | 34506 ft | 527 kts | 31° |
| 2026-05-04 13:28 | 16.43366 | -16.17333 | 34715 ft | 528 kts | 31° |
| 2026-05-04 13:29 | 16.46402 | -16.15077 | 34914 ft | 529 kts | 31° |
| 2026-05-04 13:29 | 16.49398 | -16.12849 | 35129 ft | 530 kts | 31° |
| 2026-05-04 13:29 | 16.52357 | -16.10647 | 35344 ft | 530 kts | 31° |
| 2026-05-04 13:29 | 16.55393 | -16.08383 | 35555 ft | 530 kts | 31° |
| 2026-05-04 13:30 | 16.58356 | -16.06173 | 35754 ft | 530 kts | 31° |
| 2026-05-04 13:30 | 16.61360 | -16.03933 | 35863 ft | 531 kts | 31° |
| 2026-05-04 13:30 | 16.67376 | -15.99448 | 35898 ft | 532 kts | 31° |
| 2026-05-04 13:31 | 16.73411 | -15.94946 | 35903 ft | 533 kts | 31° |
| 2026-05-04 13:31 | 16.79448 | -15.90440 | 35899 ft | 534 kts | 31° |
| 2026-05-04 13:32 | 16.85491 | -15.85925 | 35897 ft | 534 kts | 31° |
| 2026-05-04 13:32 | 16.91534 | -15.81408 | 35897 ft | 534 kts | 31° |
| 2026-05-04 13:33 | 16.97572 | -15.76890 | 35887 ft | 534 kts | 31° |
| 2026-05-04 13:33 | 17.03619 | -15.72362 | 35893 ft | 534 kts | 31° |
| 2026-05-04 13:34 | 17.09659 | -15.67835 | 35890 ft | 534 kts | 31° |
| 2026-05-04 13:34 | 17.15654 | -15.63331 | 35890 ft | 534 kts | 31° |
| 2026-05-04 13:35 | 17.24719 | -15.56520 | 35884 ft | 535 kts | 31° |
| 2026-05-04 13:36 | 17.30760 | -15.51981 | 35887 ft | 535 kts | 31° |
| 2026-05-04 13:36 | 17.36804 | -15.47436 | 35885 ft | 535 kts | 31° |
| 2026-05-04 13:37 | 17.42852 | -15.42884 | 35875 ft | 535 kts | 31° |
| 2026-05-04 13:37 | 17.48896 | -15.38331 | 35879 ft | 535 kts | 31° |
| 2026-05-04 13:38 | 17.54938 | -15.33776 | 35871 ft | 535 kts | 31° |
| 2026-05-04 13:38 | 17.60979 | -15.29218 | 35873 ft | 535 kts | 31° |
| 2026-05-04 13:39 | 17.67019 | -15.24654 | 35873 ft | 535 kts | 31° |
| 2026-05-04 13:39 | 17.73057 | -15.20090 | 35868 ft | 535 kts | 31° |
| 2026-05-04 13:40 | 17.79094 | -15.15527 | 35865 ft | 535 kts | 31° |
| 2026-05-04 13:40 | 17.85137 | -15.10954 | 35875 ft | 535 kts | 31° |
| 2026-05-04 13:41 | 17.91142 | -15.06388 | 35866 ft | 536 kts | 31° |
| 2026-05-04 13:41 | 17.97156 | -15.01808 | 35866 ft | 536 kts | 31° |
| 2026-05-04 13:42 | 18.06217 | -14.94905 | 35860 ft | 536 kts | 31° |
| 2026-05-04 13:42 | 18.12249 | -14.90305 | 35858 ft | 536 kts | 31° |
| 2026-05-04 13:43 | 18.18281 | -14.85702 | 35859 ft | 536 kts | 31° |
| 2026-05-04 13:43 | 18.24317 | -14.81091 | 35854 ft | 537 kts | 31° |
| 2026-05-04 13:44 | 18.30360 | -14.76472 | 35851 ft | 537 kts | 31° |
| 2026-05-04 13:44 | 18.36412 | -14.71840 | 35850 ft | 537 kts | 31° |
| 2026-05-04 13:45 | 18.42458 | -14.67209 | 35851 ft | 537 kts | 31° |
| 2026-05-04 13:45 | 18.48500 | -14.62577 | 35849 ft | 537 kts | 31° |
| 2026-05-04 13:46 | 18.54495 | -14.57969 | 35853 ft | 537 kts | 32° |
| 2026-05-04 13:46 | 18.60539 | -14.53319 | 35849 ft | 538 kts | 31° |
| 2026-05-04 13:47 | 18.66593 | -14.48664 | 35848 ft | 538 kts | 31° |
| 2026-05-04 13:47 | 18.71624 | -14.44794 | 35848 ft | 538 kts | 31° |
| 2026-05-04 13:48 | 18.77674 | -14.40135 | 35848 ft | 538 kts | 31° |
| 2026-05-04 13:48 | 18.83729 | -14.35469 | 35845 ft | 538 kts | 31° |
| 2026-05-04 13:49 | 18.89777 | -14.30804 | 35845 ft | 538 kts | 32° |
| 2026-05-04 13:49 | 18.95828 | -14.26132 | 35846 ft | 539 kts | 31° |
| 2026-05-04 13:50 | 19.01884 | -14.21453 | 35843 ft | 539 kts | 31° |
| 2026-05-04 13:50 | 19.07941 | -14.16768 | 35843 ft | 540 kts | 32° |
| 2026-05-04 13:51 | 19.13998 | -14.12078 | 35842 ft | 539 kts | 32° |
| 2026-05-04 13:51 | 19.20050 | -14.07384 | 35843 ft | 540 kts | 32° |
| 2026-05-04 13:52 | 19.29124 | -14.00330 | 35849 ft | 540 kts | 32° |
| 2026-05-04 13:53 | 19.35182 | -13.95623 | 35843 ft | 540 kts | 32° |
| 2026-05-04 13:53 | 19.41243 | -13.90911 | 35844 ft | 540 kts | 32° |
| 2026-05-04 13:54 | 19.50323 | -13.83844 | 35844 ft | 540 kts | 32° |
| 2026-05-04 13:55 | 19.59367 | -13.76794 | 35842 ft | 540 kts | 32° |
| 2026-05-04 13:55 | 19.68485 | -13.69677 | 35841 ft | 540 kts | 32° |
| 2026-05-04 13:56 | 19.74483 | -13.64989 | 35840 ft | 540 kts | 32° |
| 2026-05-04 13:57 | 19.83567 | -13.57881 | 35840 ft | 540 kts | 32° |
| 2026-05-04 13:58 | 19.95660 | -13.48383 | 35857 ft | 540 kts | 32° |
| 2026-05-04 13:58 | 20.04734 | -13.41257 | 35842 ft | 540 kts | 32° |
| 2026-05-04 13:59 | 20.10787 | -13.36499 | 35845 ft | 541 kts | 32° |
| 2026-05-04 14:00 | 20.19857 | -13.29360 | 35846 ft | 541 kts | 32° |
| 2026-05-04 14:00 | 20.28891 | -13.22238 | 35850 ft | 541 kts | 32° |
| 2026-05-04 14:01 | 20.34938 | -13.17465 | 35855 ft | 541 kts | 32° |
| 2026-05-04 14:02 | 20.43995 | -13.10308 | 35853 ft | 540 kts | 32° |
| 2026-05-04 14:02 | 20.50456 | -13.06445 | 35853 ft | 526 kts | 13° |
| 2026-05-04 14:03 | 20.57487 | -13.04583 | 35866 ft | 519 kts | 4° |
| 2026-05-04 14:03 | 20.64586 | -13.03101 | 35891 ft | 521 kts | 5° |
| 2026-05-04 14:04 | 20.75200 | -13.00428 | 35875 ft | 523 kts | 7° |
| 2026-05-04 14:04 | 20.82262 | -12.98518 | 35873 ft | 524 kts | 7° |
| 2026-05-04 14:05 | 20.92860 | -12.95660 | 35880 ft | 523 kts | 7° |
| 2026-05-04 14:06 | 20.99920 | -12.93765 | 35876 ft | 523 kts | 7° |
| 2026-05-04 14:06 | 21.06987 | -12.91868 | 35889 ft | 523 kts | 7° |
| 2026-05-04 14:07 | 21.14048 | -12.89970 | 35896 ft | 523 kts | 7° |
| 2026-05-04 14:07 | 21.21115 | -12.88068 | 35890 ft | 523 kts | 7° |
| 2026-05-04 14:08 | 21.28176 | -12.86166 | 35889 ft | 523 kts | 7° |
| 2026-05-04 14:08 | 21.35235 | -12.84258 | 35894 ft | 523 kts | 7° |
| 2026-05-04 14:09 | 21.45821 | -12.81396 | 35891 ft | 523 kts | 7° |
| 2026-05-04 14:10 | 21.56354 | -12.78548 | 35892 ft | 523 kts | 7° |
| 2026-05-04 14:10 | 21.63417 | -12.76636 | 35913 ft | 523 kts | 7° |
| 2026-05-04 14:11 | 21.70480 | -12.74722 | 35903 ft | 523 kts | 7° |
| 2026-05-04 14:11 | 21.81042 | -12.71856 | 35900 ft | 523 kts | 7° |
| 2026-05-04 14:12 | 21.88100 | -12.69938 | 35899 ft | 523 kts | 7° |
| 2026-05-04 14:13 | 21.98687 | -12.67058 | 35912 ft | 523 kts | 7° |
| 2026-05-04 14:13 | 22.05747 | -12.65134 | 35908 ft | 523 kts | 7° |
| 2026-05-04 14:14 | 22.12807 | -12.63208 | 35907 ft | 523 kts | 7° |
| 2026-05-04 14:14 | 22.23393 | -12.60312 | 35917 ft | 523 kts | 7° |
| 2026-05-04 14:15 | 22.37506 | -12.56450 | 35912 ft | 522 kts | 7° |
| 2026-05-04 14:16 | 22.48024 | -12.53568 | 35912 ft | 522 kts | 7° |
| 2026-05-04 14:17 | 22.58587 | -12.50669 | 35915 ft | 522 kts | 7° |
| 2026-05-04 14:18 | 22.69150 | -12.47765 | 35919 ft | 522 kts | 7° |
| 2026-05-04 14:19 | 22.83226 | -12.43763 | 35925 ft | 525 kts | 10° |
| 2026-05-04 14:19 | 22.90185 | -12.41267 | 35921 ft | 527 kts | 12° |
| 2026-05-04 14:20 | 22.97116 | -12.38664 | 35931 ft | 527 kts | 13° |
| 2026-05-04 14:20 | 23.04046 | -12.36090 | 35926 ft | 526 kts | 12° |
| 2026-05-04 14:21 | 23.14454 | -12.32265 | 35926 ft | 526 kts | 12° |
| 2026-05-04 14:21 | 23.21395 | -12.29714 | 35925 ft | 526 kts | 12° |
| 2026-05-04 14:22 | 23.28333 | -12.27160 | 35944 ft | 527 kts | 12° |
| 2026-05-04 14:22 | 23.35287 | -12.24597 | 35929 ft | 527 kts | 12° |
| 2026-05-04 14:23 | 23.45709 | -12.20749 | 35926 ft | 527 kts | 12° |
| 2026-05-04 14:24 | 23.52612 | -12.18203 | 35928 ft | 527 kts | 12° |
| 2026-05-04 14:24 | 23.59563 | -12.15644 | 35957 ft | 527 kts | 12° |
| 2026-05-04 14:25 | 23.66517 | -12.13082 | 35921 ft | 528 kts | 12° |
| 2026-05-04 14:25 | 23.76952 | -12.09233 | 35922 ft | 528 kts | 12° |
| 2026-05-04 14:26 | 23.83894 | -12.06668 | 35920 ft | 528 kts | 12° |
| 2026-05-04 14:26 | 23.90857 | -12.04093 | 35907 ft | 528 kts | 12° |
| 2026-05-04 14:27 | 23.97809 | -12.01518 | 35922 ft | 528 kts | 11° |
| 2026-05-04 14:27 | 24.04763 | -11.98940 | 35918 ft | 528 kts | 11° |
| 2026-05-04 14:28 | 24.11716 | -11.96360 | 35915 ft | 528 kts | 11° |
| 2026-05-04 14:28 | 24.18667 | -11.93777 | 35917 ft | 528 kts | 11° |
| 2026-05-04 14:29 | 24.32566 | -11.88595 | 35915 ft | 528 kts | 11° |
| 2026-05-04 14:30 | 24.39515 | -11.86001 | 35916 ft | 528 kts | 11° |
| 2026-05-04 14:31 | 24.49949 | -11.82105 | 35916 ft | 528 kts | 11° |
| 2026-05-04 14:32 | 24.63797 | -11.76923 | 35920 ft | 527 kts | 11° |
| 2026-05-04 14:32 | 24.70739 | -11.74321 | 35915 ft | 527 kts | 11° |
| 2026-05-04 14:33 | 24.77681 | -11.71716 | 35916 ft | 527 kts | 11° |
| 2026-05-04 14:33 | 24.84622 | -11.69108 | 35918 ft | 527 kts | 11° |
| 2026-05-04 14:34 | 24.91564 | -11.66496 | 35920 ft | 526 kts | 11° |
| 2026-05-04 14:34 | 24.98489 | -11.63888 | 35922 ft | 526 kts | 11° |
| 2026-05-04 14:35 | 25.05409 | -11.61277 | 35922 ft | 526 kts | 11° |
| 2026-05-04 14:35 | 25.12330 | -11.58657 | 35922 ft | 526 kts | 11° |
| 2026-05-04 14:36 | 25.18079 | -11.56482 | 35924 ft | 526 kts | 11° |
| 2026-05-04 14:36 | 25.24985 | -11.53785 | 35929 ft | 527 kts | 12° |
| 2026-05-04 14:37 | 25.31860 | -11.50947 | 35936 ft | 528 kts | 13° |
| 2026-05-04 14:37 | 25.38731 | -11.48086 | 35935 ft | 527 kts | 13° |
| 2026-05-04 14:38 | 25.45600 | -11.45236 | 35941 ft | 527 kts | 13° |
| 2026-05-04 14:38 | 25.52477 | -11.42388 | 35950 ft | 527 kts | 13° |
| 2026-05-04 14:39 | 25.59324 | -11.39548 | 35942 ft | 525 kts | 13° |
| 2026-05-04 14:39 | 25.66170 | -11.36706 | 35941 ft | 525 kts | 13° |
| 2026-05-04 14:40 | 25.76432 | -11.32440 | 35947 ft | 525 kts | 13° |
| 2026-05-04 14:40 | 25.83271 | -11.29592 | 35967 ft | 525 kts | 13° |
| 2026-05-04 14:41 | 25.90042 | -11.26766 | 35953 ft | 522 kts | 13° |
| 2026-05-04 14:42 | 26.03640 | -11.21082 | 35955 ft | 522 kts | 13° |
| 2026-05-04 14:42 | 26.10438 | -11.18230 | 35958 ft | 522 kts | 13° |
| 2026-05-04 14:43 | 26.17188 | -11.15399 | 35959 ft | 520 kts | 13° |
| 2026-05-04 14:43 | 26.23955 | -11.12559 | 35956 ft | 520 kts | 13° |
| 2026-05-04 14:44 | 26.30718 | -11.09718 | 35950 ft | 519 kts | 13° |
| 2026-05-04 14:44 | 26.37479 | -11.06875 | 35953 ft | 519 kts | 13° |
| 2026-05-04 14:45 | 26.44243 | -11.04027 | 35976 ft | 519 kts | 13° |
| 2026-05-04 14:45 | 26.50995 | -11.01179 | 35944 ft | 519 kts | 13° |
| 2026-05-04 14:46 | 26.57747 | -10.98328 | 35935 ft | 518 kts | 13° |
| 2026-05-04 14:46 | 26.64491 | -10.95477 | 35938 ft | 518 kts | 13° |
| 2026-05-04 14:47 | 26.71239 | -10.92621 | 35936 ft | 518 kts | 13° |
| 2026-05-04 14:47 | 26.77984 | -10.89761 | 35945 ft | 518 kts | 13° |
| 2026-05-04 14:48 | 26.84725 | -10.86891 | 35936 ft | 518 kts | 13° |
| 2026-05-04 14:48 | 26.91464 | -10.84023 | 35927 ft | 518 kts | 13° |
| 2026-05-04 14:49 | 26.98204 | -10.81155 | 35930 ft | 518 kts | 13° |
| 2026-05-04 14:49 | 27.04943 | -10.78285 | 35930 ft | 518 kts | 13° |
| 2026-05-04 14:50 | 27.11635 | -10.75430 | 35935 ft | 518 kts | 13° |
| 2026-05-04 14:50 | 27.18367 | -10.72555 | 35939 ft | 518 kts | 13° |
| 2026-05-04 14:51 | 27.25104 | -10.69674 | 35930 ft | 518 kts | 13° |
| 2026-05-04 14:51 | 27.31839 | -10.66789 | 35940 ft | 518 kts | 13° |
| 2026-05-04 14:52 | 27.38586 | -10.63897 | 35937 ft | 518 kts | 13° |
| 2026-05-04 14:52 | 27.45321 | -10.61005 | 35945 ft | 518 kts | 13° |
| 2026-05-04 14:53 | 27.52061 | -10.58107 | 35945 ft | 518 kts | 13° |
| 2026-05-04 14:53 | 27.58789 | -10.55206 | 35942 ft | 518 kts | 13° |
| 2026-05-04 14:54 | 27.65525 | -10.52296 | 35937 ft | 517 kts | 13° |
| 2026-05-04 14:54 | 27.72263 | -10.49457 | 35949 ft | 517 kts | 12° |
| 2026-05-04 14:55 | 27.79009 | -10.46661 | 35950 ft | 517 kts | 12° |
| 2026-05-04 14:55 | 27.85757 | -10.43862 | 35954 ft | 517 kts | 12° |
| 2026-05-04 14:56 | 27.92486 | -10.41061 | 35950 ft | 517 kts | 12° |
| 2026-05-04 14:56 | 27.99233 | -10.38246 | 35964 ft | 517 kts | 12° |
| 2026-05-04 14:57 | 28.05983 | -10.35425 | 35960 ft | 517 kts | 12° |
| 2026-05-04 14:57 | 28.12686 | -10.32621 | 35959 ft | 517 kts | 12° |
| 2026-05-04 14:58 | 28.19432 | -10.29795 | 35964 ft | 517 kts | 12° |
| 2026-05-04 14:58 | 28.26183 | -10.26964 | 35954 ft | 517 kts | 12° |
| 2026-05-04 14:59 | 28.32927 | -10.24131 | 35965 ft | 517 kts | 12° |
| 2026-05-04 15:00 | 28.43043 | -10.19874 | 35974 ft | 517 kts | 12° |
| 2026-05-04 15:00 | 28.49786 | -10.17025 | 35975 ft | 517 kts | 12° |
| 2026-05-04 15:01 | 28.59894 | -10.12749 | 35986 ft | 517 kts | 12° |
| 2026-05-04 15:01 | 28.66626 | -10.09901 | 35985 ft | 516 kts | 12° |
| 2026-05-04 15:02 | 28.73365 | -10.07048 | 35985 ft | 516 kts | 12° |
| 2026-05-04 15:02 | 28.80093 | -10.04196 | 35996 ft | 516 kts | 11° |
| 2026-05-04 15:03 | 28.86814 | -10.01341 | 35992 ft | 516 kts | 12° |
| 2026-05-04 15:03 | 28.93545 | -9.98479 | 35997 ft | 516 kts | 11° |
| 2026-05-04 15:04 | 29.00230 | -9.95631 | 35994 ft | 516 kts | 12° |
| 2026-05-04 15:04 | 29.06962 | -9.92744 | 35992 ft | 516 kts | 12° |
| 2026-05-04 15:05 | 29.13687 | -9.89855 | 35995 ft | 516 kts | 12° |
| 2026-05-04 15:05 | 29.20417 | -9.86964 | 36009 ft | 516 kts | 11° |
| 2026-05-04 15:06 | 29.27140 | -9.84073 | 36003 ft | 516 kts | 11° |
| 2026-05-04 15:07 | 29.37218 | -9.79731 | 36003 ft | 515 kts | 11° |
| 2026-05-04 15:07 | 29.43927 | -9.76836 | 35991 ft | 515 kts | 11° |
| 2026-05-04 15:08 | 29.50605 | -9.73951 | 36019 ft | 515 kts | 11° |
| 2026-05-04 15:08 | 29.57324 | -9.71043 | 36015 ft | 515 kts | 11° |
| 2026-05-04 15:09 | 29.64031 | -9.68133 | 36010 ft | 516 kts | 11° |
| 2026-05-04 15:09 | 29.70743 | -9.65211 | 36009 ft | 515 kts | 11° |
| 2026-05-04 15:10 | 29.80812 | -9.60829 | 36015 ft | 515 kts | 11° |
| 2026-05-04 15:11 | 29.90874 | -9.56444 | 36004 ft | 515 kts | 11° |
| 2026-05-04 15:11 | 29.97558 | -9.53530 | 35991 ft | 515 kts | 11° |
| 2026-05-04 15:12 | 30.04268 | -9.50608 | 35991 ft | 515 kts | 11° |
| 2026-05-04 15:12 | 30.10973 | -9.47686 | 35990 ft | 515 kts | 11° |
| 2026-05-04 15:13 | 30.17680 | -9.44759 | 35972 ft | 515 kts | 11° |
| 2026-05-04 15:13 | 30.24331 | -9.41851 | 35966 ft | 514 kts | 11° |
| 2026-05-04 15:14 | 30.31012 | -9.38879 | 35960 ft | 518 kts | 14° |
| 2026-05-04 15:14 | 30.37262 | -9.34474 | 35964 ft | 537 kts | 31° |
| 2026-05-04 15:15 | 30.42867 | -9.28693 | 35957 ft | 541 kts | 36° |
| 2026-05-04 15:15 | 30.48424 | -9.22834 | 35958 ft | 539 kts | 34° |
| 2026-05-04 15:16 | 30.56944 | -9.14349 | 35957 ft | 538 kts | 33° |
| 2026-05-04 15:17 | 30.65515 | -9.05948 | 35993 ft | 537 kts | 32° |
| 2026-05-04 15:17 | 30.74092 | -8.97579 | 35966 ft | 537 kts | 32° |